Galax, VA

4:49 PM EDT on March 28, 2017 (GMT -0400)
Twin County

Weather History for KHLX - February, 2013

Change the Weather History Date:

Thursday, February 14, 2013

  Actual Average (KBLF) Record (KBLF)
Temperature  
Mean Temperature 42 °F -  
Max Temperature 51 °F 44 °F 66 °F (1990)
Min Temperature 32 °F 27 °F 0 °F (2016)
Degree Days  
Heating Degree Days 24    
Moisture  
Dew Point 26 °F    
Average Humidity 59    
Maximum Humidity 87    
Minimum Humidity 19    
Precipitation  
Precipitation 0.00 in - - ()
Sea Level Pressure  
Sea Level Pressure 29.95 in    
Wind  
Wind Speed 12 mph (West)    
Max Wind Speed 22 mph    
Max Gust Speed 29 mph    
Visibility 10 miles    
Events      
Averages and records for this station are not official NWS values.
T = Trace of Precipitation, MM = Missing Value Source: NWS Daily Summary

Daily Weather History Graph

Daily Weather History Graph

Search for Another Location

Airport or City:

Trip Planner

Search our weather history database for the weather conditions in past years. The results will help you decide how hot, cold, wet, or windy it might be!

Date:

Astronomy

Feb. 14, 2013 Rise Set
Actual Time 7:12 AM EST 6:02 PM EST
Civil Twilight 6:45 AM EST 6:29 PM EST
Nautical Twilight 6:15 AM EST 6:59 PM EST
Astronomical Twilight 5:45 AM EST 7:29 PM EST
Moon 9:22 AM EST (2/14) 10:54 PM EST (2/14)
Length of Visible Light 11h 43m
Length of Day
10h 50m
Waxing Crescent, 21% of the Moon is Illuminated
Feb 14
Waxing Crescent
Feb 17
First Quarter
Feb 25
Full
Mar 4
Last Quarter
Mar 11
New

Hourly Weather History & Observations

Time (EST) Temp. Windchill Dew Point Humidity Pressure Visibility Wind Dir Wind Speed Gust Speed Precip Events Conditions
12:15 AM 35.6 °F 24.5 °F 32.0 °F 87% 29.82 in 10.0 mi WNW 20.7 mph 28.8 mph N/A   Overcast
12:35 AM 35.6 °F 24.2 °F 32.0 °F 87% 29.83 in 10.0 mi NW 21.9 mph 27.6 mph N/A   Overcast
12:55 AM 35.6 °F 26.2 °F 30.2 °F 81% 29.83 in 10.0 mi WNW 15.0 mph 25.3 mph N/A   Mostly Cloudy
1:15 AM 35.6 °F 25.5 °F 30.2 °F 81% 29.84 in 10.0 mi WNW 17.3 mph 23.0 mph N/A   Mostly Cloudy
1:35 AM 35.6 °F 26.2 °F 28.4 °F 75% 29.84 in 10.0 mi WNW 15.0 mph 21.9 mph N/A   Mostly Cloudy
1:55 AM 35.6 °F 28.0 °F 28.4 °F 75% 29.86 in 10.0 mi WNW 10.4 mph 17.3 mph N/A   Mostly Cloudy
2:15 AM 35.6 °F 27.5 °F 28.4 °F 75% 29.87 in 10.0 mi WNW 11.5 mph 17.3 mph N/A   Mostly Cloudy
2:35 AM 35.6 °F 25.2 °F 28.4 °F 75% 29.87 in 10.0 mi NW 18.4 mph 26.5 mph N/A   Scattered Clouds
2:55 AM 35.6 °F 27.1 °F 28.4 °F 75% 29.88 in 10.0 mi WNW 12.7 mph 18.4 mph N/A   Mostly Cloudy
3:15 AM 35.6 °F 24.8 °F 26.6 °F 70% 29.89 in 10.0 mi NW 19.6 mph 25.3 mph N/A   Scattered Clouds
3:35 AM 35.6 °F 25.9 °F 26.6 °F 70% 29.89 in 10.0 mi NW 16.1 mph - N/A   Clear
3:55 AM 35.6 °F 26.6 °F 28.4 °F 75% 29.89 in 10.0 mi NW 13.8 mph 19.6 mph N/A   Scattered Clouds
4:15 AM 33.8 °F 23.2 °F 26.6 °F 75% 29.88 in 10.0 mi NW 17.3 mph - N/A   Scattered Clouds
4:35 AM 33.8 °F 23.5 °F 26.6 °F 75% 29.89 in 10.0 mi NW 16.1 mph - N/A   Clear
4:55 AM 33.8 °F 24.3 °F 26.6 °F 75% 29.90 in 10.0 mi NW 13.8 mph 19.6 mph N/A   Clear
5:15 AM 33.8 °F 25.8 °F 26.6 °F 75% 29.91 in 10.0 mi NW 10.4 mph 17.3 mph N/A   Clear
5:35 AM 33.8 °F 25.8 °F 26.6 °F 75% 29.91 in 10.0 mi WNW 10.4 mph 17.3 mph N/A   Scattered Clouds
5:55 AM 33.8 °F 26.4 °F 26.6 °F 75% 29.91 in 10.0 mi WNW 9.2 mph - N/A   Scattered Clouds
6:15 AM 33.8 °F 24.3 °F 26.6 °F 75% 29.91 in 10.0 mi WNW 13.8 mph - N/A   Scattered Clouds
6:35 AM 33.8 °F 27.0 °F 26.6 °F 75% 29.91 in 10.0 mi NW 8.1 mph - N/A   Clear
6:55 AM 33.8 °F 26.4 °F 26.6 °F 75% 29.92 in 10.0 mi WNW 9.2 mph - N/A   Clear
7:15 AM 32.0 °F 24.2 °F 24.8 °F 75% 29.93 in 10.0 mi WNW 9.2 mph - N/A   Clear
7:35 AM 32.0 °F 24.2 °F 24.8 °F 75% 29.94 in 10.0 mi WNW 9.2 mph - N/A   Clear
7:55 AM 32.0 °F 25.6 °F 24.8 °F 75% 29.95 in 10.0 mi WNW 6.9 mph - N/A   Clear
8:15 AM 33.8 °F 29.6 °F 24.8 °F 70% 29.96 in 10.0 mi NW 4.6 mph - N/A   Clear
8:35 AM 33.8 °F 29.6 °F 26.6 °F 75% 29.98 in 10.0 mi West 4.6 mph - N/A   Clear
8:55 AM 33.8 °F 27.0 °F 26.6 °F 75% 30.00 in 10.0 mi West 8.1 mph - N/A   Scattered Clouds
9:15 AM 33.8 °F 27.0 °F 26.6 °F 75% 30.00 in 10.0 mi West 8.1 mph - N/A   Clear
9:35 AM 35.6 °F 29.9 °F 26.6 °F 70% 30.00 in 10.0 mi West 6.9 mph - N/A   Clear
9:55 AM 35.6 °F 29.9 °F 26.6 °F 70% 30.00 in 10.0 mi WSW 6.9 mph - N/A   Clear
10:15 AM 37.4 °F 32.1 °F 26.6 °F 65% 30.00 in 10.0 mi SW 6.9 mph - N/A   Clear
10:35 AM 37.4 °F 33.8 °F 26.6 °F 65% 30.00 in 10.0 mi SW 4.6 mph - N/A   Clear
10:55 AM 39.2 °F 33.6 °F 26.6 °F 61% 30.01 in 10.0 mi West 8.1 mph - N/A   Clear
11:15 AM 39.2 °F 34.2 °F 24.8 °F 56% 30.00 in 10.0 mi SW 6.9 mph - N/A   Clear
11:35 AM 41.0 °F 35.2 °F 24.8 °F 53% 29.98 in 10.0 mi NW 9.2 mph - N/A   Clear
11:55 AM 42.8 °F 41.1 °F 26.6 °F 53% 29.98 in 10.0 mi NNW 3.5 mph - N/A   Clear
12:15 PM 44.6 °F - 24.8 °F 46% 29.98 in 10.0 mi Calm Calm - N/A   Clear
12:35 PM 44.6 °F 40.7 °F 24.8 °F 46% 29.98 in 10.0 mi SSW 6.9 mph - N/A   Clear
12:55 PM 46.4 °F - 24.8 °F 43% 29.97 in 10.0 mi Calm Calm - N/A   Clear
1:15 PM 46.4 °F 43.5 °F 24.8 °F 43% 29.97 in 10.0 mi SW 5.8 mph - N/A   Clear
1:35 PM 48.2 °F - 21.2 °F 34% 29.95 in 10.0 mi SW 10.4 mph - N/A   Clear
1:55 PM 48.2 °F - 21.2 °F 34% 29.94 in 10.0 mi WSW 4.6 mph - N/A   Clear
2:15 PM 51.8 °F - 15.8 °F 24% 29.94 in 10.0 mi SW 12.7 mph 16.1 mph N/A   Clear
2:35 PM 51.8 °F - 12.2 °F 21% 29.93 in 10.0 mi WSW 13.8 mph - N/A   Clear
2:55 PM 51.8 °F - 10.4 °F 19% 29.92 in 10.0 mi WSW 10.4 mph 18.4 mph N/A   Clear
3:15 PM 51.8 °F - 19.4 °F 28% 29.93 in 10.0 mi NW 9.2 mph - N/A   Clear
3:35 PM 50.0 °F - 24.8 °F 37% 29.95 in 10.0 mi West 6.9 mph - N/A   Clear
3:55 PM 51.8 °F - 24.8 °F 35% 29.95 in 10.0 mi WNW 9.2 mph - N/A   Clear
4:15 PM 51.8 °F - 24.8 °F 35% 29.94 in 10.0 mi NW 6.9 mph - N/A   Clear
4:35 PM 51.8 °F - 23.0 °F 33% 29.95 in 10.0 mi West 9.2 mph - N/A   Clear
4:55 PM 51.8 °F - 21.2 °F 30% 29.95 in 10.0 mi NW 3.5 mph - N/A   Clear
5:15 PM 50.0 °F - 23.0 °F 35% 29.96 in 10.0 mi WNW 9.2 mph - N/A   Clear
5:35 PM 48.2 °F - 23.0 °F 37% 29.97 in 10.0 mi WNW 8.1 mph - N/A   Clear
5:55 PM 48.2 °F - 24.8 °F 40% 29.97 in 10.0 mi WNW 6.9 mph - N/A   Clear
6:15 PM 46.4 °F 42.9 °F 24.8 °F 43% 29.97 in 10.0 mi WNW 6.9 mph - N/A   Clear
6:35 PM 44.6 °F 40.7 °F 24.8 °F 46% 29.98 in 10.0 mi WNW 6.9 mph - N/A   Clear
6:55 PM 44.6 °F 39.2 °F 24.8 °F 46% 29.99 in 10.0 mi NW 10.4 mph - N/A   Clear
7:15 PM 44.6 °F 39.2 °F 26.6 °F 49% 30.00 in 10.0 mi WNW 10.4 mph - N/A   Clear
7:35 PM 44.6 °F 40.7 °F 26.6 °F 49% 30.00 in 10.0 mi West 6.9 mph - N/A   Clear
7:55 PM 42.8 °F 38.0 °F 26.6 °F 53% 29.99 in 10.0 mi West 8.1 mph - N/A   Clear
8:15 PM 42.8 °F 41.1 °F 26.6 °F 53% 29.99 in 10.0 mi West 3.5 mph - N/A   Clear
8:35 PM 42.8 °F 41.1 °F 26.6 °F 53% 29.99 in 10.0 mi West 3.5 mph - N/A   Clear
8:55 PM 42.8 °F 40.1 °F 28.4 °F 57% 29.99 in 10.0 mi WSW 4.6 mph - N/A   Clear
9:15 PM 41.0 °F 38.0 °F 28.4 °F 61% 29.99 in 10.0 mi WSW 4.6 mph - N/A   Clear
9:35 PM 41.0 °F 37.1 °F 28.4 °F 61% 29.99 in 10.0 mi West 5.8 mph - N/A   Clear
9:55 PM 39.2 °F 35.9 °F 28.4 °F 65% 29.99 in 10.0 mi SW 4.6 mph - N/A   Clear
10:15 PM 39.2 °F 33.6 °F 28.4 °F 65% 30.01 in 10.0 mi SSW 8.1 mph - N/A   Clear
10:35 PM 39.2 °F 34.2 °F 28.4 °F 65% 30.01 in 10.0 mi South 6.9 mph - N/A   Clear
10:55 PM 39.2 °F 37.0 °F 28.4 °F 65% 30.01 in 10.0 mi SSW 3.5 mph - N/A   Clear
11:15 PM 39.2 °F 37.0 °F 28.4 °F 65% 30.01 in 10.0 mi SW 3.5 mph - N/A   Clear
11:35 PM 39.2 °F 35.9 °F 28.4 °F 65% 30.01 in 10.0 mi SW 4.6 mph - N/A   Clear
11:55 PM 39.2 °F 34.2 °F 28.4 °F 65% 30.01 in 10.0 mi WSW 6.9 mph - N/A   Clear